Ana Sayfa
METAR-TAF:

METAR-TAF

Havaalanları :

Sandnessjøen, Norveç

Enlem: 65-58N, Boylam: 012-28E, yükseklik: 1 m

Güncel hava durumu gözlemi

Rapor saat 19:50 UTC de 1 saat ve 28 dakika önce yapıldı.
Rüzgar kuzeybatıdan 18 kt ve 30 kt'a kadar ani rüzgarlar, batı ve kuzey arasında değişken
Sıcaklık 2°C
Nem 60%
Basınç 988 hPa
Görüş mesafesi 10 km veya daha fazla
2000 ft yükseklikte az bulutlu, Kümülonimbus.
4000 ft yükseklikte az bulutlu

METAR: ENST 231950Z 31018G30KT 270V360 9999 FEW020CB FEW040 02/M05 Q0988 RMK WIND 300FT 30024G37KT

Saat: 22:18 (21:18 UTC)


TAF: eksik

4.000'den fazla havaalanı için hava durumu gözlemleri ve tahminleri (METAR ve TAF raporları).

Kullanılabilir istasyonlar harita üzerinde sarı ve kırmızı noktalarla gösterilir.

İstasyonun adını görmek için fareyi noktanın üzerinde gezdirin.

Sonrasında hava gözlem ve tahminlerini görmek için tıklayın.

Haritayı değiştirmek için: yaklaştırmak için siyah artı işaretli yeşil düğmeye ve uzaklaştırmak için de eksi işaretli düğmeye hızla tıklayın; bitişik haritalar için yeşil okları kullanın.


METAR-TAF: